Time;durP1;ratioP1;P1;durP2;ratioP2;P2;SDS_P1;SDS_P2;PMS_P1;PMS_P2;Temp;Humidity;BMP_temperature;BMP_pressure;BME280_temperature;BME280_humidity;BME280_pressure;Samples;Min_cycle;Max_cycle;Signal;HPM_P1;HPM_P2
2023/01/21 00:01:30;;;;;;;1.98;1.10;;;25.10;46.80;;;;;;4934219;29;20204;-58
2023/01/21 00:04:00;;;;;;;2.60;1.13;;;25.10;46.80;;;;;;4933805;29;20200;-60
2023/01/21 00:06:31;;;;;;;2.22;1.10;;;25.20;46.90;;;;;;4933437;29;20760;-61
2023/01/21 00:09:02;;;;;;;2.08;1.05;;;25.10;46.80;;;;;;4933653;29;20206;-61
2023/01/21 00:11:35;;;;;;;2.30;1.30;;;25.20;46.80;;;;;;4933855;29;20668;-60
2023/01/21 00:14:05;;;;;;;2.55;1.20;;;25.10;46.70;;;;;;4933621;29;20580;-57
2023/01/21 00:16:36;;;;;;;3.33;1.40;;;25.20;46.70;;;;;;4933544;29;20239;-61
2023/01/21 00:19:06;;;;;;;3.47;1.35;;;25.20;46.60;;;;;;4933472;29;20199;-58
2023/01/21 00:21:37;;;;;;;3.10;1.15;;;25.20;46.60;;;;;;4936009;29;20614;-58
2023/01/21 00:24:08;;;;;;;2.17;1.00;;;25.30;46.60;;;;;;4933725;29;20203;-61
2023/01/21 00:26:40;;;;;;;4.32;1.40;;;25.30;46.60;;;;;;4933453;29;20227;-57
2023/01/21 00:29:13;;;;;;;2.10;1.20;;;25.30;46.60;;;;;;4933246;29;20195;-59
2023/01/21 00:31:43;;;;;;;2.42;1.23;;;25.30;46.60;;;;;;4933240;29;20196;-58
2023/01/21 00:34:14;;;;;;;3.92;1.30;;;25.30;46.50;;;;;;4934800;29;20196;-61
2023/01/21 00:36:45;;;;;;;2.40;1.50;;;25.30;46.60;;;;;;4937225;29;20653;-60
2023/01/21 00:39:15;;;;;;;1.98;1.25;;;25.30;46.50;;;;;;4937252;29;20203;-61
2023/01/21 00:41:48;;;;;;;2.85;1.40;;;25.30;46.60;;;;;;4937112;29;20686;-61
2023/01/21 00:44:19;;;;;;;2.88;1.30;;;25.30;46.60;;;;;;4936723;29;20212;-61
2023/01/21 00:46:49;;;;;;;2.95;1.30;;;25.40;46.60;;;;;;4936690;29;20226;-60
2023/01/21 00:49:20;;;;;;;7.00;1.35;;;25.30;46.50;;;;;;4936736;29;20207;-61
2023/01/21 00:51:51;;;;;;;2.75;1.38;;;25.40;46.60;;;;;;4936490;29;20204;-58
2023/01/21 00:54:21;;;;;;;3.40;1.40;;;25.40;46.50;;;;;;4936487;29;20219;-61
2023/01/21 00:56:54;;;;;;;3.22;1.35;;;25.40;46.50;;;;;;4935918;29;20235;-59
2023/01/21 00:59:26;;;;;;;2.85;1.48;;;25.40;46.40;;;;;;4935235;29;20278;-57
2023/01/21 01:01:56;;;;;;;4.25;1.35;;;25.40;46.30;;;;;;4935750;29;20290;-60
2023/01/21 01:04:27;;;;;;;3.80;1.50;;;25.40;46.30;;;;;;4935254;29;20199;-58
2023/01/21 01:06:58;;;;;;;2.72;1.42;;;25.40;46.30;;;;;;4935091;29;20234;-58
2023/01/21 01:09:28;;;;;;;3.47;1.33;;;25.50;46.30;;;;;;4935214;29;20203;-58
2023/01/21 01:12:01;;;;;;;3.20;1.13;;;25.50;46.30;;;;;;4934939;29;20195;-58
2023/01/21 01:14:32;;;;;;;2.10;1.30;;;25.50;46.20;;;;;;4934615;29;20743;-59
2023/01/21 01:17:03;;;;;;;2.55;1.20;;;25.50;46.20;;;;;;4934673;29;20262;-60
2023/01/21 01:19:34;;;;;;;2.25;1.08;;;25.50;46.20;;;;;;4934879;29;20242;-58
2023/01/21 01:22:04;;;;;;;3.10;1.45;;;25.50;46.20;;;;;;4934986;29;20203;-58
2023/01/21 01:24:35;;;;;;;3.33;1.23;;;25.50;46.20;;;;;;4935098;29;20214;-60
2023/01/21 01:27:08;;;;;;;3.30;1.23;;;25.50;46.70;;;;;;4935168;29;20219;-59
2023/01/21 01:29:38;;;;;;;1.90;1.00;;;25.50;46.10;;;;;;4934904;29;20208;-58
2023/01/21 01:32:09;;;;;;;1.70;0.90;;;25.60;46.10;;;;;;4950928;29;20199;-57
2023/01/21 01:34:40;;;;;;;4.38;1.08;;;25.60;46.10;;;;;;4953960;28;20203;-60
2023/01/21 01:37:10;;;;;;;2.35;0.98;;;25.60;46.00;;;;;;4953973;28;20237;-59
2023/01/21 01:39:41;;;;;;;1.85;1.10;;;25.60;46.00;;;;;;4953814;28;20203;-57
2023/01/21 01:42:17;;;;;;;5.57;1.38;;;25.60;45.90;;;;;;4953771;28;20206;-58
2023/01/21 01:45:02;;;;;;;2.28;1.10;;;25.70;46.00;;;;;;4913894;29;20264;-61
2023/01/21 01:47:38;;;;;;;3.25;1.08;;;25.70;45.80;;;;;;4915674;29;20226;-59
2023/01/21 01:50:10;;;;;;;1.90;1.20;;;25.70;45.80;;;;;;4915831;29;20387;-56
2023/01/21 01:52:43;;;;;;;2.50;1.00;;;25.70;45.80;;;;;;4915556;29;20208;-58
2023/01/21 01:55:16;;;;;;;2.75;1.20;;;25.70;45.80;;;;;;4915607;29;20664;-59
2023/01/21 01:57:53;;;;;;;2.80;1.40;;;25.80;45.60;;;;;;4797667;29;3483695;-56
2023/01/21 02:00:25;;;;;;;2.97;1.15;;;25.80;45.40;;;;;;4916333;29;20442;-55
2023/01/21 02:05:45;;;;;;;2.67;0.95;;;25.80;45.30;;;;;;4916578;29;20203;-58
2023/01/21 02:08:16;;;;;;;2.45;0.90;;;25.80;45.50;;;;;;4916237;29;20586;-58
2023/01/21 02:10:46;;;;;;;5.70;1.60;;;25.80;45.50;;;;;;4915976;29;20204;-58
2023/01/21 02:13:19;;;;;;;2.83;1.23;;;25.80;45.50;;;;;;4924500;29;20203;-58
2023/01/21 02:16:01;;;;;;;2.63;0.98;;;25.80;45.40;;;;;;4934789;29;20203;-59
2023/01/21 02:18:39;;;;;;;3.58;1.40;;;25.90;45.50;;;;;;4934941;29;20290;-58
2023/01/21 02:21:29;;;;;;;2.88;1.17;;;25.90;45.40;;;;;;4937411;29;20199;-56
2023/01/21 02:24:37;;;;;;;2.25;1.02;;;25.90;45.30;;;;;;4934791;29;20212;-59
2023/01/21 02:27:37;;;;;;;3.17;1.33;;;25.90;45.30;;;;;;4934645;29;20224;-61
2023/01/21 02:30:39;;;;;;;2.20;1.15;;;25.90;45.10;;;;;;4934932;29;20562;-58
2023/01/21 02:33:43;;;;;;;1.40;0.85;;;26.00;45.20;;;;;;4925990;29;20206;-59
2023/01/21 02:36:33;;;;;;;3.55;1.42;;;26.00;45.20;;;;;;4934500;29;20203;-59
2023/01/21 02:39:13;;;;;;;2.08;1.30;;;25.90;45.00;;;;;;4934167;29;20199;-59
2023/01/21 02:41:59;;;;;;;3.45;1.17;;;26.00;45.10;;;;;;4934759;29;20207;-55
2023/01/21 02:44:36;;;;;;;3.65;1.33;;;26.00;45.10;;;;;;4934537;29;20581;-58
2023/01/21 02:47:16;;;;;;;1.25;0.93;;;26.00;45.10;;;;;;4934192;29;20230;-61
2023/01/21 02:49:52;;;;;;;2.55;1.20;;;26.00;45.20;;;;;;4934113;29;20235;-61
2023/01/21 02:52:25;;;;;;;3.30;1.20;;;26.00;45.30;;;;;;4934666;29;20199;-57
2023/01/21 02:54:57;;;;;;;3.50;1.02;;;26.00;45.40;;;;;;4934579;29;20234;-61
2023/01/21 02:57:41;;;;;;;3.35;1.40;;;26.00;45.30;;;;;;4933582;29;20231;-59
2023/01/21 03:00:18;;;;;;;3.00;1.30;;;26.00;45.30;;;;;;4934228;28;20203;-61
2023/01/21 03:03:26;;;;;;;2.88;1.10;;;26.00;45.30;;;;;;4934909;29;20199;-58
2023/01/21 03:06:21;;;;;;;2.45;0.80;;;26.00;45.10;;;;;;4890167;28;20203;-59
2023/01/21 03:08:55;;;;;;;3.40;1.20;;;26.00;45.30;;;;;;4934513;29;20212;-58
2023/01/21 03:11:26;;;;;;;3.97;1.30;;;26.10;45.30;;;;;;4934102;29;20200;-58
2023/01/21 03:16:58;;;;;;;4.38;1.45;;;26.10;45.30;;;;;;4933494;29;20308;-59
2023/01/21 03:19:36;;;;;;;2.42;1.20;;;26.10;45.30;;;;;;4933762;29;20199;-59
2023/01/21 03:22:13;;;;;;;2.25;1.13;;;26.10;45.30;;;;;;4934212;29;20619;-61
2023/01/21 03:24:48;;;;;;;2.03;1.00;;;26.10;45.30;;;;;;4933930;29;20206;-61
2023/01/21 03:27:21;;;;;;;2.03;1.10;;;26.10;46.00;;;;;;4933919;29;20223;-59
2023/01/21 03:29:55;;;;;;;3.03;1.08;;;26.00;45.40;;;;;;4933864;29;20200;-60
2023/01/21 03:32:27;;;;;;;2.42;1.13;;;26.10;45.50;;;;;;4939936;29;20191;-59
2023/01/21 03:35:00;;;;;;;3.72;1.30;;;26.10;45.50;;;;;;4947759;28;20209;-60
2023/01/21 03:37:38;;;;;;;2.20;1.17;;;26.10;45.50;;;;;;4935752;28;20230;-60
2023/01/21 03:40:17;;;;;;;2.53;0.98;;;26.10;45.60;;;;;;4952760;28;20210;-59
2023/01/21 03:42:49;;;;;;;4.25;1.20;;;26.10;45.60;;;;;;4933488;29;20691;-60
2023/01/21 03:45:23;;;;;;;2.17;0.90;;;26.10;45.50;;;;;;4952518;28;20194;-60
2023/01/21 03:47:57;;;;;;;3.90;0.98;;;26.10;45.60;;;;;;4949474;28;20210;-60
2023/01/21 03:50:35;;;;;;;2.83;1.10;;;26.10;45.50;;;;;;4933302;29;20198;-60
2023/01/21 03:53:08;;;;;;;2.22;0.90;;;26.10;45.50;;;;;;4938297;29;20194;-59
2023/01/21 03:55:39;;;;;;;3.15;1.15;;;26.10;45.50;;;;;;4933110;29;20203;-60
2023/01/21 03:58:10;;;;;;;2.63;1.00;;;26.10;45.50;;;;;;4938465;29;20231;-59
2023/01/21 04:00:45;;;;;;;2.53;1.10;;;26.10;45.50;;;;;;4951579;28;20541;-59
2023/01/21 04:03:15;;;;;;;3.03;0.95;;;26.10;45.60;;;;;;4951671;28;20278;-59
2023/01/21 04:05:46;;;;;;;3.17;1.17;;;26.10;45.60;;;;;;4952553;28;20214;-58
2023/01/21 04:08:18;;;;;;;1.88;0.93;;;26.10;45.70;;;;;;4952448;28;20215;-59
2023/01/21 04:10:49;;;;;;;3.53;1.05;;;26.10;45.70;;;;;;4955433;28;20199;-60
2023/01/21 04:13:20;;;;;;;3.50;1.10;;;26.10;45.70;;;;;;4945013;28;20204;-59
2023/01/21 04:15:52;;;;;;;2.53;1.00;;;26.10;45.70;;;;;;4917036;29;20694;-59
2023/01/21 04:18:23;;;;;;;4.25;1.25;;;26.10;45.80;;;;;;4932214;29;20788;-59
2023/01/21 04:20:53;;;;;;;2.45;0.77;;;26.10;45.70;;;;;;4953530;28;20202;-59
2023/01/21 04:23:26;;;;;;;3.03;1.13;;;26.10;45.70;;;;;;4956426;28;20202;-60
2023/01/21 04:25:57;;;;;;;2.45;1.00;;;26.10;45.60;;;;;;4954784;28;20203;-59
2023/01/21 04:28:27;;;;;;;2.17;0.90;;;26.10;45.70;;;;;;4955061;28;20199;-60
2023/01/21 04:30:58;;;;;;;3.17;1.20;;;26.10;45.50;;;;;;4943607;28;20585;-59
2023/01/21 04:33:29;;;;;;;3.00;1.20;;;26.00;45.40;;;;;;4943782;29;20195;-59
2023/01/21 04:36:00;;;;;;;3.28;1.10;;;26.10;45.60;;;;;;4955487;28;20262;-58
2023/01/21 04:38:33;;;;;;;5.18;1.25;;;26.00;45.30;;;;;;4955092;28;20230;-61
2023/01/21 04:41:04;;;;;;;2.30;1.10;;;26.00;45.00;;;;;;4954721;28;20203;-60
2023/01/21 04:43:34;;;;;;;3.35;1.20;;;26.00;44.80;;;;;;4942540;29;20644;-62
2023/01/21 04:46:05;;;;;;;3.80;1.55;;;25.90;44.60;;;;;;4954559;28;20199;-59
2023/01/21 04:48:36;;;;;;;2.55;0.98;;;25.90;44.60;;;;;;4954503;28;20674;-60
2023/01/21 04:51:07;;;;;;;3.83;1.05;;;25.90;44.50;;;;;;4955402;28;20198;-59
2023/01/21 04:53:39;;;;;;;3.05;1.10;;;25.80;44.40;;;;;;4955159;28;20251;-61
2023/01/21 04:56:10;;;;;;;3.13;0.80;;;25.80;44.40;;;;;;4954738;28;20210;-60
2023/01/21 04:58:41;;;;;;;3.78;1.17;;;25.80;44.40;;;;;;4955476;28;20238;-59
2023/01/21 05:01:12;;;;;;;3.83;1.10;;;25.70;44.30;;;;;;4955625;28;20205;-59
2023/01/21 05:03:43;;;;;;;5.22;1.30;;;25.70;44.40;;;;;;4954865;28;20194;-59
2023/01/21 05:06:13;;;;;;;3.42;1.10;;;25.70;44.40;;;;;;4954486;28;20202;-60
2023/01/21 05:08:46;;;;;;;5.20;1.30;;;25.60;44.30;;;;;;4954395;28;20202;-62
2023/01/21 05:11:19;;;;;;;3.28;1.00;;;25.60;44.40;;;;;;4943160;28;20208;-60
2023/01/21 05:13:50;;;;;;;2.60;1.00;;;25.50;44.30;;;;;;4936642;29;20202;-60
2023/01/21 05:16:21;;;;;;;3.30;1.20;;;25.50;44.40;;;;;;4915723;29;20228;-60
2023/01/21 05:18:51;;;;;;;3.15;1.00;;;25.50;44.60;;;;;;4931624;29;20219;-60
2023/01/21 05:21:22;;;;;;;2.30;1.15;;;25.50;44.80;;;;;;4954130;28;20202;-60
2023/01/21 05:23:55;;;;;;;3.45;1.05;;;25.50;44.90;;;;;;4953563;28;20199;-60
2023/01/21 05:26:26;;;;;;;3.05;0.90;;;25.50;45.00;;;;;;4954927;28;20274;-60
2023/01/21 05:28:56;;;;;;;3.35;1.13;;;25.50;45.10;;;;;;4953857;28;20199;-60
2023/01/21 05:31:27;;;;;;;2.40;1.10;;;25.40;45.00;;;;;;4939358;28;20203;-60
2023/01/21 05:33:59;;;;;;;2.63;1.05;;;25.50;45.10;;;;;;4942896;29;20195;-60
2023/01/21 05:36:30;;;;;;;3.22;1.13;;;25.50;45.10;;;;;;4919125;28;20595;-59
2023/01/21 05:39:02;;;;;;;3.53;1.08;;;25.40;45.10;;;;;;4931196;29;21010;-59
2023/01/21 05:41:33;;;;;;;2.55;1.30;;;25.40;45.10;;;;;;4942558;28;20212;-59
2023/01/21 05:44:04;;;;;;;2.10;0.88;;;25.40;45.10;;;;;;4943363;29;20688;-60
2023/01/21 05:46:34;;;;;;;3.70;1.08;;;25.40;45.10;;;;;;4953140;28;20234;-59
2023/01/21 05:49:05;;;;;;;1.58;0.75;;;25.40;45.20;;;;;;4953029;28;20202;-60
2023/01/21 05:51:36;;;;;;;3.08;1.13;;;25.40;45.20;;;;;;4948329;28;20187;-59
2023/01/21 05:54:08;;;;;;;2.45;1.08;;;25.40;45.30;;;;;;4942960;29;20190;-60
2023/01/21 05:56:39;;;;;;;2.90;0.70;;;25.40;45.30;;;;;;4953731;28;20689;-60
2023/01/21 05:59:10;;;;;;;1.75;0.82;;;25.40;45.40;;;;;;4954217;28;20245;-60
2023/01/21 06:01:41;;;;;;;1.67;0.80;;;25.40;45.40;;;;;;4954329;28;20207;-60
2023/01/21 06:04:12;;;;;;;3.78;1.00;;;25.40;45.40;;;;;;4953964;28;20218;-60
2023/01/21 06:06:42;;;;;;;1.83;0.82;;;25.40;45.40;;;;;;4953678;28;20229;-60
2023/01/21 06:09:15;;;;;;;3.33;1.05;;;25.40;45.40;;;;;;4953902;28;20210;-60
2023/01/21 06:11:45;;;;;;;3.47;1.00;;;25.40;45.50;;;;;;4953673;28;20202;-60
2023/01/21 06:14:16;;;;;;;2.13;1.00;;;25.40;45.40;;;;;;4944445;28;20234;-59
2023/01/21 06:16:47;;;;;;;1.67;0.82;;;25.40;45.50;;;;;;4953272;28;20226;-59
2023/01/21 06:19:17;;;;;;;4.65;1.20;;;25.40;45.60;;;;;;4953219;28;20235;-60
2023/01/21 06:21:48;;;;;;;3.60;1.02;;;25.40;45.40;;;;;;4953973;28;20199;-61
2023/01/21 06:24:21;;;;;;;6.07;1.42;;;25.40;45.40;;;;;;4953654;28;20205;-57
2023/01/21 06:26:52;;;;;;;7.15;1.42;;;25.30;45.10;;;;;;4953680;28;20218;-58
2023/01/21 06:29:22;;;;;;;4.68;1.13;;;25.30;45.10;;;;;;4951450;28;20230;-60
2023/01/21 06:31:53;;;;;;;4.85;1.45;;;25.30;45.00;;;;;;4933073;28;20207;-57
2023/01/21 06:34:24;;;;;;;3.58;1.15;;;25.30;45.00;;;;;;4941868;29;20209;-59
2023/01/21 06:36:54;;;;;;;5.55;1.58;;;25.30;45.00;;;;;;4953264;28;20238;-60
2023/01/21 06:39:27;;;;;;;5.38;1.27;;;25.30;45.00;;;;;;4953069;28;20231;-56
2023/01/21 06:41:58;;;;;;;4.60;1.10;;;25.20;45.00;;;;;;4953232;28;20282;-55
2023/01/21 06:44:28;;;;;;;4.35;1.40;;;25.20;45.00;;;;;;4942347;28;20187;-59
2023/01/21 06:46:59;;;;;;;5.38;1.38;;;25.20;45.00;;;;;;4935138;28;20343;-59
2023/01/21 06:49:30;;;;;;;5.15;1.02;;;25.20;45.10;;;;;;4941942;29;20195;-59
2023/01/21 06:52:00;;;;;;;3.67;1.13;;;25.10;45.10;;;;;;4952771;28;20199;-58
2023/01/21 06:54:33;;;;;;;3.92;1.20;;;25.10;45.10;;;;;;4952949;28;20206;-58
2023/01/21 06:57:04;;;;;;;3.85;1.20;;;25.10;45.20;;;;;;4952542;28;20230;-59
2023/01/21 06:59:34;;;;;;;4.55;1.35;;;25.10;45.30;;;;;;4953190;28;20222;-59
2023/01/21 07:02:05;;;;;;;4.65;1.30;;;25.10;45.40;;;;;;4953120;28;20199;-59
2023/01/21 07:04:36;;;;;;;3.50;1.20;;;25.10;45.50;;;;;;4953243;28;20199;-58
2023/01/21 07:07:06;;;;;;;3.40;1.10;;;25.10;45.60;;;;;;4952686;28;20227;-59
2023/01/21 07:09:39;;;;;;;3.72;1.30;;;25.00;45.60;;;;;;4952938;28;20238;-58
2023/01/21 07:12:10;;;;;;;2.78;1.23;;;25.00;45.60;;;;;;4952752;28;20206;-58
2023/01/21 07:14:40;;;;;;;3.40;1.23;;;25.10;45.70;;;;;;4929638;29;20202;-59
2023/01/21 07:17:11;;;;;;;2.85;1.05;;;25.00;45.80;;;;;;4953264;28;20234;-59
2023/01/21 07:19:42;;;;;;;2.05;1.00;;;25.00;45.80;;;;;;4953175;28;20239;-59
2023/01/21 07:22:12;;;;;;;3.03;1.13;;;25.00;45.80;;;;;;4952677;28;20198;-59
2023/01/21 07:24:45;;;;;;;3.67;1.13;;;25.00;45.80;;;;;;4952352;28;20210;-59
2023/01/21 07:27:16;;;;;;;2.20;1.10;;;25.00;45.80;;;;;;4953030;28;20270;-59
2023/01/21 07:29:46;;;;;;;3.08;1.35;;;25.00;45.80;;;;;;4953095;28;20203;-59
2023/01/21 07:32:17;;;;;;;2.67;1.10;;;25.00;45.80;;;;;;4952824;28;20213;-58
2023/01/21 07:34:48;;;;;;;2.58;0.80;;;25.00;45.90;;;;;;4949447;28;20647;-59
2023/01/21 07:37:18;;;;;;;2.83;0.80;;;25.00;45.90;;;;;;4933584;29;20228;-60
2023/01/21 07:39:51;;;;;;;2.78;0.88;;;25.00;45.90;;;;;;4933459;29;20223;-57
2023/01/21 07:42:21;;;;;;;3.22;0.90;;;25.00;46.00;;;;;;4933421;29;20204;-58
2023/01/21 07:44:52;;;;;;;2.33;1.10;;;25.00;46.10;;;;;;4933316;29;20896;-59
2023/01/21 07:47:23;;;;;;;1.92;0.90;;;25.00;46.10;;;;;;4932565;29;20219;-59
2023/01/21 07:49:53;;;;;;;3.00;1.20;;;25.00;46.20;;;;;;4933193;29;20212;-57
2023/01/21 07:52:24;;;;;;;2.70;0.82;;;24.90;46.10;;;;;;4933594;29;20203;-58
2023/01/21 07:54:56;;;;;;;2.53;1.10;;;24.90;46.20;;;;;;4933876;29;20203;-59
2023/01/21 07:57:27;;;;;;;3.70;0.80;;;24.90;46.20;;;;;;4932981;29;20330;-60
2023/01/21 07:59:58;;;;;;;2.42;1.02;;;24.90;46.20;;;;;;4933258;29;20699;-59
2023/01/21 08:02:29;;;;;;;2.95;1.00;;;24.90;46.20;;;;;;4933457;29;20207;-59
2023/01/21 08:04:59;;;;;;;2.28;0.85;;;24.90;46.20;;;;;;4933204;29;20567;-59
2023/01/21 08:07:30;;;;;;;2.58;1.23;;;24.90;46.20;;;;;;4933685;29;20219;-59
2023/01/21 08:10:02;;;;;;;1.38;0.82;;;24.90;46.20;;;;;;4933650;29;20210;-59
2023/01/21 08:12:33;;;;;;;2.53;1.00;;;24.90;46.30;;;;;;4933376;29;20204;-58
2023/01/21 08:15:04;;;;;;;2.88;1.10;;;24.90;46.30;;;;;;4933502;29;20203;-59
2023/01/21 08:17:34;;;;;;;2.15;0.85;;;24.90;46.40;;;;;;4933427;29;20215;-58
2023/01/21 08:20:05;;;;;;;2.13;1.02;;;24.90;46.40;;;;;;4935265;29;20227;-58
2023/01/21 08:22:36;;;;;;;1.38;0.80;;;24.90;46.50;;;;;;4952362;28;20203;-58
2023/01/21 08:25:09;;;;;;;2.05;0.93;;;24.90;46.50;;;;;;4952428;28;20206;-58
2023/01/21 08:27:40;;;;;;;2.42;1.00;;;24.90;46.60;;;;;;4951951;28;20227;-58
2023/01/21 08:30:12;;;;;;;2.33;0.73;;;24.80;46.50;;;;;;4951868;28;20211;-58
2023/01/21 08:32:42;;;;;;;2.45;0.98;;;24.80;46.60;;;;;;4952154;28;20213;-58
2023/01/21 08:35:13;;;;;;;2.20;1.02;;;24.80;46.60;;;;;;4952591;28;20667;-58
2023/01/21 08:37:44;;;;;;;1.20;0.70;;;24.80;46.60;;;;;;4951793;28;20234;-59
2023/01/21 08:40:17;;;;;;;1.65;0.80;;;24.80;46.60;;;;;;4951955;28;20234;-59
2023/01/21 08:42:48;;;;;;;0.90;0.60;;;24.80;46.60;;;;;;4947476;28;20567;-59
2023/01/21 08:45:18;;;;;;;1.20;0.77;;;24.80;46.60;;;;;;4933436;29;20199;-56
2023/01/21 08:47:49;;;;;;;3.10;0.98;;;24.70;46.60;;;;;;4932792;29;20224;-60
2023/01/21 08:50:20;;;;;;;1.15;0.80;;;24.70;46.60;;;;;;4929736;29;20568;-59
2023/01/21 08:52:54;;;;;;;1.58;0.88;;;24.70;46.60;;;;;;4932751;29;20568;-59
2023/01/21 08:55:27;;;;;;;2.42;0.88;;;24.70;46.70;;;;;;4935126;29;20195;-59
2023/01/21 08:57:58;;;;;;;1.35;0.73;;;24.70;46.70;;;;;;4917194;29;20227;-59
2023/01/21 09:00:29;;;;;;;2.00;0.95;;;24.70;46.80;;;;;;4942966;29;20231;-60
2023/01/21 09:03:01;;;;;;;3.72;1.15;;;24.70;47.00;;;;;;4955481;28;20202;-59
2023/01/21 09:05:32;;;;;;;2.22;0.90;;;24.70;47.00;;;;;;4954777;28;20191;-59
2023/01/21 09:08:02;;;;;;;2.60;1.08;;;24.70;47.00;;;;;;4952116;28;20807;-59
2023/01/21 09:13:23;;;;;;;2.50;0.80;;;24.70;47.00;;;;;;4945160;29;20231;-59
2023/01/21 09:15:53;;;;;;;1.85;1.17;;;24.70;47.00;;;;;;4947625;29;20214;-59
2023/01/21 09:18:24;;;;;;;2.10;0.85;;;24.70;47.00;;;;;;4951789;28;20234;-59
2023/01/21 09:20:55;;;;;;;1.15;0.70;;;24.60;46.90;;;;;;4940470;29;20191;-59
2023/01/21 09:23:25;;;;;;;2.05;1.10;;;24.60;46.90;;;;;;4955122;28;20568;-59
2023/01/21 09:26:03;;;;;;;1.85;0.90;;;24.70;47.00;;;;;;4954344;28;20199;-59
2023/01/21 09:28:34;;;;;;;1.88;0.70;;;24.60;47.00;;;;;;4950805;28;20195;-59
2023/01/21 09:31:06;;;;;;;2.53;0.80;;;24.60;47.00;;;;;;4947577;29;20195;-59
2023/01/21 09:33:38;;;;;;;2.45;0.80;;;24.60;47.00;;;;;;4954688;28;20215;-59
2023/01/21 09:36:12;;;;;;;1.85;1.00;;;24.60;47.00;;;;;;4954664;28;20195;-59
2023/01/21 09:38:45;;;;;;;2.35;1.17;;;24.60;47.10;;;;;;4953801;28;20227;-60
2023/01/21 09:41:26;;;;;;;3.05;1.08;;;24.50;47.10;;;;;;4941009;28;20215;-59
2023/01/21 09:44:13;;;;;;;2.15;0.75;;;24.50;47.10;;;;;;4934900;29;20223;-59
2023/01/21 09:46:49;;;;;;;1.67;0.98;;;24.50;47.10;;;;;;4949553;28;20219;-59
2023/01/21 09:49:24;;;;;;;1.67;0.80;;;24.50;47.10;;;;;;4954358;28;20213;-59
2023/01/21 09:52:05;;;;;;;2.15;0.68;;;24.60;47.20;;;;;;4953688;28;20206;-59
2023/01/21 09:54:37;;;;;;;1.60;0.60;;;24.50;47.20;;;;;;4953454;28;20203;-59
2023/01/21 09:57:42;;;;;;;2.47;1.00;;;24.50;47.20;;;;;;4936463;28;20622;-59
2023/01/21 10:00:34;;;;;;;1.85;0.70;;;24.50;47.20;;;;;;4925057;29;20234;-58
2023/01/21 10:03:17;;;;;;;1.48;0.90;;;24.50;47.20;;;;;;4954705;28;20235;-59
2023/01/21 10:06:08;;;;;;;1.85;0.90;;;24.50;47.20;;;;;;4953071;28;20222;-60
2023/01/21 10:08:49;;;;;;;0.90;0.70;;;24.40;47.20;;;;;;4953652;28;20207;-60
2023/01/21 10:11:33;;;;;;;1.73;0.80;;;24.40;47.20;;;;;;4954406;28;20191;-60
2023/01/21 10:14:23;;;;;;;1.30;0.75;;;24.40;47.20;;;;;;4938422;28;20216;-60
2023/01/21 10:17:02;;;;;;;2.05;0.95;;;24.40;47.20;;;;;;4951606;28;20690;-60
2023/01/21 10:19:38;;;;;;;2.00;0.70;;;24.40;47.30;;;;;;4953649;28;20900;-60
2023/01/21 10:22:14;;;;;;;1.00;0.85;;;24.40;47.30;;;;;;4953965;28;20210;-59
2023/01/21 10:24:49;;;;;;;1.38;1.00;;;24.30;47.20;;;;;;4953580;28;20210;-59
2023/01/21 10:27:22;;;;;;;1.42;0.60;;;24.30;47.30;;;;;;4916084;29;20219;-59
2023/01/21 10:29:58;;;;;;;1.10;0.70;;;24.30;47.30;;;;;;4931293;29;20195;-59
2023/01/21 10:32:30;;;;;;;1.42;0.70;;;24.30;47.40;;;;;;4915770;29;20861;-59
2023/01/21 10:35:00;;;;;;;1.30;0.75;;;24.30;47.40;;;;;;4917080;29;20213;-58
2023/01/21 10:37:37;;;;;;;1.33;0.73;;;24.30;47.40;;;;;;4953224;28;20222;-59
2023/01/21 10:40:16;;;;;;;1.23;0.70;;;24.30;47.40;;;;;;4953218;28;20229;-59
2023/01/21 10:42:59;;;;;;;1.60;0.70;;;24.20;47.40;;;;;;4948794;28;20211;-60
2023/01/21 10:45:39;;;;;;;1.58;0.80;;;24.20;47.40;;;;;;4931592;29;20199;-60
2023/01/21 10:48:17;;;;;;;1.40;0.80;;;24.20;47.40;;;;;;4952670;28;20226;-60
2023/01/21 10:50:56;;;;;;;1.25;0.60;;;24.20;47.40;;;;;;4951919;28;20198;-60
2023/01/21 10:53:32;;;;;;;1.73;0.77;;;24.20;47.50;;;;;;4952566;28;20574;-60
2023/01/21 10:56:25;;;;;;;1.40;0.70;;;24.20;47.50;;;;;;4952277;28;20206;-60
2023/01/21 10:59:00;;;;;;;1.27;0.65;;;24.20;47.50;;;;;;4952469;28;20230;-60
2023/01/21 11:01:35;;;;;;;1.20;0.80;;;24.20;47.50;;;;;;4953465;28;20195;-60
2023/01/21 11:04:13;;;;;;;1.88;1.00;;;24.10;47.50;;;;;;4944040;28;20207;-59
2023/01/21 11:06:44;;;;;;;1.17;0.70;;;24.10;47.50;;;;;;4946578;28;20214;-60
2023/01/21 11:09:16;;;;;;;1.98;1.00;;;24.10;47.50;;;;;;4952710;28;20205;-60
2023/01/21 11:11:47;;;;;;;0.88;0.60;;;24.00;47.50;;;;;;4953244;28;20565;-60
2023/01/21 11:14:17;;;;;;;2.83;0.90;;;24.00;47.50;;;;;;4935786;28;20580;-60
2023/01/21 11:16:50;;;;;;;1.77;0.68;;;24.00;47.60;;;;;;4945987;28;20218;-60
2023/01/21 11:19:26;;;;;;;1.40;0.60;;;24.00;47.60;;;;;;4952941;28;20242;-60
2023/01/21 11:22:05;;;;;;;1.35;0.57;;;24.00;47.60;;;;;;4953296;28;20198;-60
2023/01/21 11:24:45;;;;;;;1.52;0.80;;;23.90;47.60;;;;;;4952871;28;20190;-58
2023/01/21 11:27:22;;;;;;;1.05;0.77;;;23.90;47.60;;;;;;4953374;28;20219;-58
2023/01/21 11:29:53;;;;;;;0.70;0.60;;;23.90;47.60;;;;;;4953292;28;20199;-58
2023/01/21 11:32:27;;;;;;;1.38;0.60;;;23.90;47.60;;;;;;4952983;28;20213;-58
2023/01/21 11:35:03;;;;;;;1.45;0.70;;;23.90;47.60;;;;;;4953431;28;20199;-55
2023/01/21 11:37:35;;;;;;;1.17;0.80;;;23.90;47.70;;;;;;4950151;28;20297;-61
2023/01/21 11:40:14;;;;;;;1.40;0.77;;;23.80;47.60;;;;;;4953163;28;20691;-58
2023/01/21 11:42:50;;;;;;;1.77;0.93;;;23.80;47.60;;;;;;4948418;28;20203;-60
2023/01/21 11:45:30;;;;;;;0.95;0.60;;;23.80;47.60;;;;;;4933892;29;20222;-59
2023/01/21 11:48:04;;;;;;;1.02;0.60;;;23.80;47.70;;;;;;4933686;29;20219;-58
2023/01/21 11:50:36;;;;;;;1.30;0.70;;;23.70;47.70;;;;;;4933409;29;20556;-59
2023/01/21 11:53:16;;;;;;;1.98;0.60;;;23.70;47.70;;;;;;4933631;29;20238;-58
2023/01/21 11:55:49;;;;;;;1.40;0.70;;;23.70;47.70;;;;;;4933538;29;20235;-58
2023/01/21 11:58:23;;;;;;;1.40;0.50;;;23.70;47.70;;;;;;4933380;29;20231;-56
2023/01/21 12:00:57;;;;;;;0.80;0.60;;;23.60;47.70;;;;;;4934084;29;20233;-56
2023/01/21 12:03:33;;;;;;;1.27;0.63;;;23.70;47.80;;;;;;4934048;29;20203;-59
2023/01/21 12:06:05;;;;;;;1.33;0.60;;;23.60;47.80;;;;;;4933884;29;20203;-57
2023/01/21 12:08:37;;;;;;;1.45;0.60;;;23.60;47.80;;;;;;4933875;29;20204;-60
2023/01/21 12:11:10;;;;;;;0.63;0.60;;;23.60;47.80;;;;;;4933635;29;20249;-58
2023/01/21 12:13:49;;;;;;;1.25;0.70;;;23.60;47.80;;;;;;4933583;29;20203;-58
2023/01/21 12:16:33;;;;;;;1.52;0.70;;;23.50;47.80;;;;;;4933409;29;20210;-59
2023/01/21 12:19:27;;;;;;;1.55;0.80;;;23.50;47.80;;;;;;4933713;29;20261;-59
2023/01/21 12:22:15;;;;;;;1.48;0.60;;;23.50;47.80;;;;;;4933351;29;20206;-59
2023/01/21 12:25:08;;;;;;;0.73;0.70;;;23.50;47.80;;;;;;4935782;29;20681;-59
2023/01/21 12:27:50;;;;;;;1.27;0.65;;;23.50;47.80;;;;;;4932914;29;20223;-60
2023/01/21 12:30:29;;;;;;;1.85;0.85;;;23.40;47.70;;;;;;4934575;29;20204;-59
2023/01/21 12:33:03;;;;;;;1.38;0.70;;;23.40;47.80;;;;;;4937069;29;20211;-59
2023/01/21 12:35:38;;;;;;;1.42;0.68;;;23.40;47.80;;;;;;4937515;29;20211;-59
2023/01/21 12:38:12;;;;;;;1.10;0.70;;;23.40;47.80;;;;;;4937119;29;20223;-58
2023/01/21 12:40:50;;;;;;;1.15;0.60;;;23.40;47.90;;;;;;4936759;29;20231;-60
2023/01/21 12:43:26;;;;;;;1.60;0.68;;;23.40;47.90;;;;;;4936628;29;20204;-58
2023/01/21 12:46:02;;;;;;;2.00;0.60;;;23.30;47.90;;;;;;4936608;29;20203;-60
2023/01/21 12:48:37;;;;;;;1.40;0.50;;;23.30;47.90;;;;;;4936529;29;20207;-60
2023/01/21 12:51:15;;;;;;;1.15;0.70;;;23.30;47.90;;;;;;4936896;29;20775;-59
2023/01/21 12:53:49;;;;;;;2.15;0.73;;;23.30;47.90;;;;;;4936837;29;20214;-59
2023/01/21 12:56:30;;;;;;;1.35;0.50;;;23.30;47.90;;;;;;4936829;29;20226;-59
2023/01/21 12:59:05;;;;;;;0.90;0.65;;;23.30;47.90;;;;;;4936110;29;20242;-60
2023/01/21 13:01:50;;;;;;;1.10;0.80;;;23.20;47.80;;;;;;4936302;29;20246;-59
2023/01/21 13:04:44;;;;;;;1.33;0.65;;;23.20;47.90;;;;;;4936562;29;20357;-59
2023/01/21 13:07:25;;;;;;;1.33;0.60;;;23.20;47.90;;;;;;4936636;29;20220;-59
2023/01/21 13:10:03;;;;;;;0.70;0.57;;;23.20;47.90;;;;;;4936535;29;20300;-59
2023/01/21 13:12:36;;;;;;;0.70;0.60;;;23.10;47.80;;;;;;4935907;29;20775;-59
2023/01/21 13:15:17;;;;;;;1.52;0.70;;;23.10;47.80;;;;;;4935926;29;20199;-58
2023/01/21 13:17:50;;;;;;;1.38;0.70;;;23.10;47.90;;;;;;4935859;29;20710;-60
2023/01/21 13:20:23;;;;;;;0.82;0.70;;;23.10;47.90;;;;;;4936017;29;20238;-59
2023/01/21 13:23:06;;;;;;;1.20;0.65;;;23.00;47.80;;;;;;4936272;29;20207;-59
2023/01/21 13:25:44;;;;;;;1.98;0.80;;;23.00;47.90;;;;;;4936012;29;20196;-58
2023/01/21 13:28:22;;;;;;;2.03;0.70;;;23.00;47.90;;;;;;4935955;29;20719;-59
2023/01/21 13:30:57;;;;;;;2.00;0.70;;;23.00;48.40;;;;;;4935947;29;20683;-59
2023/01/21 13:33:36;;;;;;;0.85;0.70;;;23.00;47.80;;;;;;4935463;29;20195;-58